sensor_id;sensor_type;location;lat;lon;timestamp;pressure;altitude;pressure_sealevel;temperature;humidity
11952;BME280;6036;41.840;23.486;2022-10-19T00:00:18;90988.00;;;10.75;37.32
11952;BME280;6036;41.840;23.486;2022-10-19T00:02:44;90978.41;;;10.17;38.79
11952;BME280;6036;41.840;23.486;2022-10-19T00:05:09;90975.00;;;9.87;39.49
11952;BME280;6036;41.840;23.486;2022-10-19T00:07:35;90969.75;;;9.87;40.00
11952;BME280;6036;41.840;23.486;2022-10-19T00:10:00;90966.78;;;9.97;39.39
11952;BME280;6036;41.840;23.486;2022-10-19T00:12:25;90963.53;;;9.71;40.00
11952;BME280;6036;41.840;23.486;2022-10-19T00:14:51;90963.38;;;9.30;41.05
11952;BME280;6036;41.840;23.486;2022-10-19T00:17:16;90956.72;;;8.77;42.86
11952;BME280;6036;41.840;23.486;2022-10-19T00:19:42;90953.25;;;9.20;41.88
11952;BME280;6036;41.840;23.486;2022-10-19T00:22:07;90946.63;;;9.31;41.24
11952;BME280;6036;41.840;23.486;2022-10-19T00:24:32;90952.81;;;9.09;42.25
11952;BME280;6036;41.840;23.486;2022-10-19T00:26:58;90937.53;;;9.37;41.66
11952;BME280;6036;41.840;23.486;2022-10-19T00:29:24;90934.44;;;9.43;41.14
11952;BME280;6036;41.840;23.486;2022-10-19T00:31:50;90927.03;;;9.54;40.56
11952;BME280;6036;41.840;23.486;2022-10-19T00:34:15;90920.25;;;9.15;41.52
11952;BME280;6036;41.840;23.486;2022-10-19T00:36:41;90925.84;;;9.43;40.69
11952;BME280;6036;41.840;23.486;2022-10-19T00:39:11;90925.59;;;9.65;40.16
11952;BME280;6036;41.840;23.486;2022-10-19T00:41:38;90918.44;;;9.82;39.50
11952;BME280;6036;41.840;23.486;2022-10-19T00:46:43;90910.63;;;9.74;39.65
11952;BME280;6036;41.840;23.486;2022-10-19T00:49:21;90902.88;;;9.86;39.25
11952;BME280;6036;41.840;23.486;2022-10-19T00:52:10;90908.03;;;9.74;39.72
11952;BME280;6036;41.840;23.486;2022-10-19T00:54:39;90910.81;;;9.69;39.34
11952;BME280;6036;41.840;23.486;2022-10-19T00:57:06;90901.66;;;9.54;39.55
11952;BME280;6036;41.840;23.486;2022-10-19T00:59:33;90899.84;;;9.55;39.57
11952;BME280;6036;41.840;23.486;2022-10-19T01:02:02;90897.22;;;9.84;39.13
11952;BME280;6036;41.840;23.486;2022-10-19T01:04:28;90891.47;;;9.91;39.03
11952;BME280;6036;41.840;23.486;2022-10-19T01:06:55;90890.63;;;9.78;38.71
11952;BME280;6036;41.840;23.486;2022-10-19T01:09:21;90882.75;;;9.28;40.14
11952;BME280;6036;41.840;23.486;2022-10-19T01:14:49;90872.41;;;9.90;39.10
11952;BME280;6036;41.840;23.486;2022-10-19T01:17:28;90873.47;;;10.18;38.99
11952;BME280;6036;41.840;23.486;2022-10-19T01:23:04;90867.47;;;9.97;39.20
11952;BME280;6036;41.840;23.486;2022-10-19T01:31:16;90851.53;;;9.61;39.90
11952;BME280;6036;41.840;23.486;2022-10-19T01:33:57;90853.41;;;9.81;39.09
11952;BME280;6036;41.840;23.486;2022-10-19T01:37:00;90855.13;;;9.98;39.35
11952;BME280;6036;41.840;23.486;2022-10-19T01:47:10;90847.78;;;9.12;41.27
11952;BME280;6036;41.840;23.486;2022-10-19T01:49:40;90856.63;;;8.90;41.89
11952;BME280;6036;41.840;23.486;2022-10-19T01:52:09;90844.97;;;8.88;42.59
11952;BME280;6036;41.840;23.486;2022-10-19T01:54:39;90842.88;;;9.10;41.89
11952;BME280;6036;41.840;23.486;2022-10-19T01:57:08;90840.19;;;9.28;41.85
11952;BME280;6036;41.840;23.486;2022-10-19T01:59:36;90838.09;;;9.50;41.16
11952;BME280;6036;41.840;23.486;2022-10-19T02:02:03;90832.44;;;9.40;41.62
11952;BME280;6036;41.840;23.486;2022-10-19T02:04:31;90835.19;;;9.14;42.10
11952;BME280;6036;41.840;23.486;2022-10-19T02:06:58;90836.47;;;9.37;41.39
11952;BME280;6036;41.840;23.486;2022-10-19T02:09:23;90838.19;;;9.54;40.81
11952;BME280;6036;41.840;23.486;2022-10-19T02:11:57;90837.97;;;9.38;40.96
11952;BME280;6036;41.840;23.486;2022-10-19T02:14:31;90834.19;;;8.98;41.84
11952;BME280;6036;41.840;23.486;2022-10-19T02:17:05;90834.78;;;9.03;41.81
11952;BME280;6036;41.840;23.486;2022-10-19T02:19:32;90834.78;;;8.48;43.30
11952;BME280;6036;41.840;23.486;2022-10-19T02:21:58;90830.03;;;8.08;45.12
11952;BME280;6036;41.840;23.486;2022-10-19T02:24:24;90834.34;;;7.86;46.06
11952;BME280;6036;41.840;23.486;2022-10-19T02:26:50;90833.28;;;8.13;44.81
11952;BME280;6036;41.840;23.486;2022-10-19T02:29:15;90832.38;;;8.26;45.08
11952;BME280;6036;41.840;23.486;2022-10-19T02:31:41;90823.63;;;8.86;42.85
11952;BME280;6036;41.840;23.486;2022-10-19T02:34:08;90824.66;;;8.56;43.17
11952;BME280;6036;41.840;23.486;2022-10-19T02:36:34;90823.81;;;8.72;43.05
11952;BME280;6036;41.840;23.486;2022-10-19T02:38:59;90820.19;;;9.02;42.07
11952;BME280;6036;41.840;23.486;2022-10-19T02:41:38;90815.59;;;8.99;42.38
11952;BME280;6036;41.840;23.486;2022-10-19T02:44:14;90814.53;;;8.92;42.76
11952;BME280;6036;41.840;23.486;2022-10-19T02:46:46;90818.66;;;9.01;42.75
11952;BME280;6036;41.840;23.486;2022-10-19T02:49:14;90823.16;;;8.92;43.00
11952;BME280;6036;41.840;23.486;2022-10-19T02:51:55;90814.25;;;8.93;42.90
11952;BME280;6036;41.840;23.486;2022-10-19T02:54:22;90813.03;;;8.91;42.72
11952;BME280;6036;41.840;23.486;2022-10-19T02:56:48;90814.09;;;8.35;43.65
11952;BME280;6036;41.840;23.486;2022-10-19T02:59:14;90811.94;;;8.54;43.24
11952;BME280;6036;41.840;23.486;2022-10-19T03:01:39;90818.25;;;8.36;43.74
11952;BME280;6036;41.840;23.486;2022-10-19T03:04:04;90814.66;;;8.58;43.38
11952;BME280;6036;41.840;23.486;2022-10-19T03:06:30;90820.69;;;8.96;42.72
11952;BME280;6036;41.840;23.486;2022-10-19T03:08:55;90819.81;;;8.83;42.59
11952;BME280;6036;41.840;23.486;2022-10-19T03:11:21;90818.19;;;8.99;42.64
11952;BME280;6036;41.840;23.486;2022-10-19T03:13:46;90817.94;;;8.92;42.68
11952;BME280;6036;41.840;23.486;2022-10-19T03:16:12;90812.09;;;8.95;42.76
11952;BME280;6036;41.840;23.486;2022-10-19T03:18:38;90817.75;;;8.51;43.38
11952;BME280;6036;41.840;23.486;2022-10-19T03:21:06;90822.69;;;7.93;45.71
11952;BME280;6036;41.840;23.486;2022-10-19T03:23:33;90819.16;;;8.06;45.27
11952;BME280;6036;41.840;23.486;2022-10-19T03:25:58;90820.88;;;7.84;46.05
11952;BME280;6036;41.840;23.486;2022-10-19T03:28:23;90819.00;;;8.28;45.13
11952;BME280;6036;41.840;23.486;2022-10-19T03:30:49;90809.66;;;8.44;44.08
11952;BME280;6036;41.840;23.486;2022-10-19T03:33:14;90817.50;;;8.82;43.28
11952;BME280;6036;41.840;23.486;2022-10-19T03:35:40;90814.75;;;8.78;43.35
11952;BME280;6036;41.840;23.486;2022-10-19T03:38:05;90808.38;;;8.50;44.05
11952;BME280;6036;41.840;23.486;2022-10-19T03:40:30;90807.53;;;8.29;44.56
11952;BME280;6036;41.840;23.486;2022-10-19T03:42:56;90805.50;;;8.43;44.32
11952;BME280;6036;41.840;23.486;2022-10-19T03:45:21;90816.69;;;8.18;45.09
11952;BME280;6036;41.840;23.486;2022-10-19T03:47:50;90818.88;;;8.07;45.74
11952;BME280;6036;41.840;23.486;2022-10-19T03:50:17;90809.16;;;8.25;44.60
11952;BME280;6036;41.840;23.486;2022-10-19T03:52:43;90800.47;;;7.95;45.61
11952;BME280;6036;41.840;23.486;2022-10-19T03:55:09;90810.44;;;7.67;45.80
11952;BME280;6036;41.840;23.486;2022-10-19T03:57:35;90808.75;;;8.14;45.40
11952;BME280;6036;41.840;23.486;2022-10-19T04:00:02;90801.06;;;7.32;47.42
11952;BME280;6036;41.840;23.486;2022-10-19T04:02:28;90798.28;;;7.20;47.83
11952;BME280;6036;41.840;23.486;2022-10-19T04:04:53;90795.53;;;7.25;48.20
11952;BME280;6036;41.840;23.486;2022-10-19T04:07:18;90790.97;;;7.39;48.76
11952;BME280;6036;41.840;23.486;2022-10-19T04:09:44;90797.56;;;7.62;47.02
11952;BME280;6036;41.840;23.486;2022-10-19T04:12:09;90792.50;;;7.92;46.66
11952;BME280;6036;41.840;23.486;2022-10-19T04:14:35;90793.59;;;7.73;46.73
11952;BME280;6036;41.840;23.486;2022-10-19T04:17:01;90786.56;;;7.82;47.50
11952;BME280;6036;41.840;23.486;2022-10-19T04:19:26;90787.47;;;7.69;46.97
11952;BME280;6036;41.840;23.486;2022-10-19T04:21:51;90789.47;;;7.55;47.32
11952;BME280;6036;41.840;23.486;2022-10-19T04:24:17;90791.44;;;8.10;46.11
11952;BME280;6036;41.840;23.486;2022-10-19T04:26:51;90789.88;;;8.17;46.12
11952;BME280;6036;41.840;23.486;2022-10-19T04:29:19;90780.38;;;8.13;45.87
11952;BME280;6036;41.840;23.486;2022-10-19T04:31:45;90790.22;;;7.99;46.41
11952;BME280;6036;41.840;23.486;2022-10-19T04:34:12;90791.56;;;7.87;46.90
11952;BME280;6036;41.840;23.486;2022-10-19T04:36:37;90790.69;;;7.92;45.94
11952;BME280;6036;41.840;23.486;2022-10-19T04:39:03;90788.69;;;7.80;47.05
11952;BME280;6036;41.840;23.486;2022-10-19T04:41:29;90779.81;;;7.81;46.46
11952;BME280;6036;41.840;23.486;2022-10-19T04:43:56;90776.13;;;7.82;46.52
11952;BME280;6036;41.840;23.486;2022-10-19T04:46:22;90775.50;;;7.94;45.58
11952;BME280;6036;41.840;23.486;2022-10-19T04:48:48;90771.63;;;8.17;45.57
11952;BME280;6036;41.840;23.486;2022-10-19T04:51:14;90773.03;;;8.32;45.38
11952;BME280;6036;41.840;23.486;2022-10-19T04:53:42;90771.31;;;8.27;44.91
11952;BME280;6036;41.840;23.486;2022-10-19T04:56:11;90774.69;;;8.28;44.74
11952;BME280;6036;41.840;23.486;2022-10-19T04:58:37;90766.72;;;8.24;44.99
11952;BME280;6036;41.840;23.486;2022-10-19T05:01:06;90775.06;;;7.92;46.55
11952;BME280;6036;41.840;23.486;2022-10-19T05:03:32;90771.81;;;7.18;48.16
11952;BME280;6036;41.840;23.486;2022-10-19T05:05:58;90776.72;;;6.72;49.53
11952;BME280;6036;41.840;23.486;2022-10-19T05:08:23;90775.94;;;7.10;49.45
11952;BME280;6036;41.840;23.486;2022-10-19T05:10:49;90779.16;;;7.25;49.60
11952;BME280;6036;41.840;23.486;2022-10-19T05:13:14;90777.66;;;7.66;48.02
11952;BME280;6036;41.840;23.486;2022-10-19T05:15:40;90776.13;;;8.00;46.64
11952;BME280;6036;41.840;23.486;2022-10-19T05:18:05;90773.38;;;7.79;47.88
11952;BME280;6036;41.840;23.486;2022-10-19T05:20:30;90772.81;;;8.54;46.03
11952;BME280;6036;41.840;23.486;2022-10-19T05:22:56;90775.91;;;8.85;45.34
11952;BME280;6036;41.840;23.486;2022-10-19T05:25:21;90767.53;;;8.63;45.36
11952;BME280;6036;41.840;23.486;2022-10-19T05:27:51;90772.97;;;8.87;45.52
11952;BME280;6036;41.840;23.486;2022-10-19T05:30:17;90770.78;;;9.89;43.14
11952;BME280;6036;41.840;23.486;2022-10-19T05:32:43;90764.78;;;10.29;41.85
11952;BME280;6036;41.840;23.486;2022-10-19T05:35:08;90776.09;;;10.78;40.60
11952;BME280;6036;41.840;23.486;2022-10-19T05:37:33;90777.09;;;11.22;39.54
11952;BME280;6036;41.840;23.486;2022-10-19T05:39:59;90780.13;;;11.60;38.21
11952;BME280;6036;41.840;23.486;2022-10-19T05:42:24;90772.50;;;11.80;37.47
11952;BME280;6036;41.840;23.486;2022-10-19T05:44:50;90779.38;;;12.12;36.01
11952;BME280;6036;41.840;23.486;2022-10-19T05:47:15;90777.84;;;12.11;36.41
11952;BME280;6036;41.840;23.486;2022-10-19T05:49:40;90784.34;;;12.29;36.33
11952;BME280;6036;41.840;23.486;2022-10-19T05:52:06;90775.84;;;12.48;36.11
11952;BME280;6036;41.840;23.486;2022-10-19T05:54:31;90771.13;;;12.53;36.18
11952;BME280;6036;41.840;23.486;2022-10-19T05:56:56;90775.81;;;12.75;35.43
11952;BME280;6036;41.840;23.486;2022-10-19T05:59:22;90780.06;;;12.95;35.14
11952;BME280;6036;41.840;23.486;2022-10-19T06:01:48;90772.50;;;13.41;34.54
11952;BME280;6036;41.840;23.486;2022-10-19T06:04:14;90771.59;;;13.84;34.15
11952;BME280;6036;41.840;23.486;2022-10-19T06:06:41;90776.59;;;14.08;33.93
11952;BME280;6036;41.840;23.486;2022-10-19T06:09:07;90773.25;;;14.46;33.13
11952;BME280;6036;41.840;23.486;2022-10-19T06:11:35;90779.03;;;15.42;31.53
11952;BME280;6036;41.840;23.486;2022-10-19T06:14:03;90771.34;;;16.38;29.95
11952;BME280;6036;41.840;23.486;2022-10-19T06:16:30;90775.41;;;17.39;28.68
11952;BME280;6036;41.840;23.486;2022-10-19T06:18:56;90778.88;;;17.97;28.00
11952;BME280;6036;41.840;23.486;2022-10-19T06:21:23;90769.13;;;18.98;26.71
11952;BME280;6036;41.840;23.486;2022-10-19T06:23:54;90777.16;;;20.00;25.23
11952;BME280;6036;41.840;23.486;2022-10-19T06:26:20;90776.59;;;20.80;24.13
11952;BME280;6036;41.840;23.486;2022-10-19T06:28:46;90773.47;;;21.64;23.27
11952;BME280;6036;41.840;23.486;2022-10-19T06:31:12;90775.00;;;22.54;21.92
11952;BME280;6036;41.840;23.486;2022-10-19T06:33:39;90780.50;;;23.38;21.03
11952;BME280;6036;41.840;23.486;2022-10-19T06:36:13;90777.97;;;24.07;20.46
11952;BME280;6036;41.840;23.486;2022-10-19T06:38:39;90788.75;;;24.46;20.14
11952;BME280;6036;41.840;23.486;2022-10-19T06:41:05;90792.25;;;25.06;19.25
11952;BME280;6036;41.840;23.486;2022-10-19T06:43:31;90789.91;;;25.63;18.09
11952;BME280;6036;41.840;23.486;2022-10-19T06:45:57;90786.19;;;26.41;17.82
11952;BME280;6036;41.840;23.486;2022-10-19T06:48:23;90783.84;;;26.72;17.19
11952;BME280;6036;41.840;23.486;2022-10-19T06:50:59;90790.31;;;27.32;16.63
11952;BME280;6036;41.840;23.486;2022-10-19T06:53:25;90788.88;;;27.69;16.71
11952;BME280;6036;41.840;23.486;2022-10-19T06:55:51;90790.69;;;28.22;15.94
11952;BME280;6036;41.840;23.486;2022-10-19T06:58:17;90784.72;;;28.65;15.95
11952;BME280;6036;41.840;23.486;2022-10-19T07:00:42;90791.50;;;29.47;15.43
11952;BME280;6036;41.840;23.486;2022-10-19T07:03:08;90786.00;;;30.21;14.62
11952;BME280;6036;41.840;23.486;2022-10-19T07:05:33;90782.41;;;30.92;14.14
11952;BME280;6036;41.840;23.486;2022-10-19T07:07:59;90787.63;;;31.68;13.46
11952;BME280;6036;41.840;23.486;2022-10-19T07:10:24;90782.09;;;31.95;13.18
11952;BME280;6036;41.840;23.486;2022-10-19T07:12:49;90783.56;;;32.47;12.96
11952;BME280;6036;41.840;23.486;2022-10-19T07:15:15;90782.28;;;32.66;12.87
11952;BME280;6036;41.840;23.486;2022-10-19T07:17:41;90779.31;;;33.02;12.50
11952;BME280;6036;41.840;23.486;2022-10-19T07:20:07;90776.56;;;33.79;12.39
11952;BME280;6036;41.840;23.486;2022-10-19T07:22:32;90779.16;;;33.88;12.16
11952;BME280;6036;41.840;23.486;2022-10-19T07:24:57;90776.06;;;34.24;11.46
11952;BME280;6036;41.840;23.486;2022-10-19T07:27:23;90770.31;;;34.72;11.33
11952;BME280;6036;41.840;23.486;2022-10-19T07:29:49;90769.25;;;35.70;10.51
11952;BME280;6036;41.840;23.486;2022-10-19T07:32:14;90772.16;;;36.18;10.31
11952;BME280;6036;41.840;23.486;2022-10-19T07:34:40;90771.44;;;35.91;10.13
11952;BME280;6036;41.840;23.486;2022-10-19T07:37:05;90770.84;;;35.36;10.73
11952;BME280;6036;41.840;23.486;2022-10-19T07:39:31;90768.00;;;35.97;10.35
11952;BME280;6036;41.840;23.486;2022-10-19T07:41:56;90768.50;;;36.26;10.11
11952;BME280;6036;41.840;23.486;2022-10-19T07:44:22;90762.50;;;35.65;11.15
11952;BME280;6036;41.840;23.486;2022-10-19T07:46:47;90759.38;;;36.35;11.12
11952;BME280;6036;41.840;23.486;2022-10-19T07:49:14;90752.19;;;36.74;10.58
11952;BME280;6036;41.840;23.486;2022-10-19T07:51:41;90757.34;;;37.03;10.74
11952;BME280;6036;41.840;23.486;2022-10-19T07:54:07;90754.88;;;37.87;10.45
11952;BME280;6036;41.840;23.486;2022-10-19T07:56:34;90753.34;;;38.80;9.77
11952;BME280;6036;41.840;23.486;2022-10-19T07:58:59;90754.53;;;39.58;9.17
11952;BME280;6036;41.840;23.486;2022-10-19T08:01:27;90745.22;;;40.43;8.68
11952;BME280;6036;41.840;23.486;2022-10-19T08:03:54;90740.50;;;41.40;8.18
11952;BME280;6036;41.840;23.486;2022-10-19T08:06:21;90735.75;;;41.97;7.78
11952;BME280;6036;41.840;23.486;2022-10-19T08:08:47;90743.19;;;42.65;7.68
11952;BME280;6036;41.840;23.486;2022-10-19T08:11:14;90739.28;;;43.53;6.85
11952;BME280;6036;41.840;23.486;2022-10-19T08:13:40;90735.94;;;43.80;6.51
11952;BME280;6036;41.840;23.486;2022-10-19T08:16:20;90739.66;;;44.37;6.10
11952;BME280;6036;41.840;23.486;2022-10-19T08:18:46;90733.41;;;43.82;6.63
11952;BME280;6036;41.840;23.486;2022-10-19T08:21:11;90734.13;;;43.83;6.29
11952;BME280;6036;41.840;23.486;2022-10-19T08:23:37;90734.66;;;43.94;6.49
11952;BME280;6036;41.840;23.486;2022-10-19T08:26:02;90728.41;;;43.81;6.78
11952;BME280;6036;41.840;23.486;2022-10-19T08:28:28;90724.44;;;44.65;6.37
11952;BME280;6036;41.840;23.486;2022-10-19T08:30:53;90725.09;;;45.27;6.19
11952;BME280;6036;41.840;23.486;2022-10-19T08:33:23;90721.91;;;44.67;6.39
11952;BME280;6036;41.840;23.486;2022-10-19T08:35:49;90719.47;;;45.91;5.34
11952;BME280;6036;41.840;23.486;2022-10-19T08:38:14;90725.47;;;46.33;5.43
11952;BME280;6036;41.840;23.486;2022-10-19T08:40:43;90719.78;;;46.99;5.16
11952;BME280;6036;41.840;23.486;2022-10-19T08:46:00;90722.41;;;47.75;4.86
11952;BME280;6036;41.840;23.486;2022-10-19T08:48:34;90704.66;;;46.77;5.28
11952;BME280;6036;41.840;23.486;2022-10-19T08:51:02;90707.44;;;46.92;5.46
11952;BME280;6036;41.840;23.486;2022-10-19T08:53:59;90707.59;;;47.87;5.04
11952;BME280;6036;41.840;23.486;2022-10-19T08:56:30;90704.03;;;48.26;4.85
11952;BME280;6036;41.840;23.486;2022-10-19T09:04:49;90693.72;;;48.19;4.89
11952;BME280;6036;41.840;23.486;2022-10-19T09:09:49;90696.50;;;49.35;4.63
11952;BME280;6036;41.840;23.486;2022-10-19T09:12:18;90686.88;;;47.73;4.50
11952;BME280;6036;41.840;23.486;2022-10-19T09:14:55;90688.94;;;49.11;4.55
11952;BME280;6036;41.840;23.486;2022-10-19T09:17:22;90678.88;;;48.24;5.23
11952;BME280;6036;41.840;23.486;2022-10-19T09:19:49;90677.56;;;43.89;6.70
11952;BME280;6036;41.840;23.486;2022-10-19T09:24:48;90681.31;;;39.07;9.33
11952;BME280;6036;41.840;23.486;2022-10-19T09:27:25;90660.56;;;36.93;9.72
11952;BME280;6036;41.840;23.486;2022-10-19T09:32:28;90661.75;;;34.48;10.86
11952;BME280;6036;41.840;23.486;2022-10-19T09:37:36;90652.16;;;33.33;12.91
11952;BME280;6036;41.840;23.486;2022-10-19T09:40:13;90647.47;;;33.05;12.68
11952;BME280;6036;41.840;23.486;2022-10-19T09:42:41;90658.47;;;32.87;13.70
11952;BME280;6036;41.840;23.486;2022-10-19T09:45:38;90647.00;;;32.30;13.75
11952;BME280;6036;41.840;23.486;2022-10-19T09:48:15;90645.19;;;31.79;14.27
11952;BME280;6036;41.840;23.486;2022-10-19T09:50:43;90640.06;;;30.70;14.78
11952;BME280;6036;41.840;23.486;2022-10-19T09:53:17;90628.63;;;30.21;14.76
11952;BME280;6036;41.840;23.486;2022-10-19T09:55:47;90643.00;;;30.00;14.73
11952;BME280;6036;41.840;23.486;2022-10-19T09:58:19;90635.16;;;29.75;15.09
11952;BME280;6036;41.840;23.486;2022-10-19T10:00:50;90635.94;;;29.14;15.71
11952;BME280;6036;41.840;23.486;2022-10-19T10:06:25;90631.91;;;28.22;17.62
11952;BME280;6036;41.840;23.486;2022-10-19T10:08:53;90625.88;;;28.18;17.27
11952;BME280;6036;41.840;23.486;2022-10-19T10:11:35;90624.34;;;27.83;17.43
11952;BME280;6036;41.840;23.486;2022-10-19T10:14:33;90625.78;;;27.75;16.78
11952;BME280;6036;41.840;23.486;2022-10-19T10:17:06;90618.72;;;27.43;16.27
11952;BME280;6036;41.840;23.486;2022-10-19T10:19:35;90619.38;;;27.22;16.38
11952;BME280;6036;41.840;23.486;2022-10-19T10:22:02;90605.38;;;27.02;17.11
11952;BME280;6036;41.840;23.486;2022-10-19T10:24:32;90604.94;;;27.03;16.70
11952;BME280;6036;41.840;23.486;2022-10-19T10:27:00;90593.88;;;26.89;16.28
11952;BME280;6036;41.840;23.486;2022-10-19T10:29:29;90603.16;;;26.46;17.09
11952;BME280;6036;41.840;23.486;2022-10-19T10:32:05;90589.56;;;26.66;17.37
11952;BME280;6036;41.840;23.486;2022-10-19T10:34:38;90592.34;;;26.63;17.36
11952;BME280;6036;41.840;23.486;2022-10-19T10:37:06;90591.13;;;26.51;17.36
11952;BME280;6036;41.840;23.486;2022-10-19T10:39:39;90577.13;;;26.02;17.37
11952;BME280;6036;41.840;23.486;2022-10-19T10:42:09;90578.63;;;26.03;18.41
11952;BME280;6036;41.840;23.486;2022-10-19T10:44:35;90580.78;;;26.08;18.40
11952;BME280;6036;41.840;23.486;2022-10-19T10:47:04;90580.34;;;26.10;17.71
11952;BME280;6036;41.840;23.486;2022-10-19T10:49:37;90569.81;;;26.03;18.66
11952;BME280;6036;41.840;23.486;2022-10-19T10:52:09;90567.97;;;25.87;18.56
11952;BME280;6036;41.840;23.486;2022-10-19T10:54:37;90560.81;;;25.97;18.28
11952;BME280;6036;41.840;23.486;2022-10-19T11:07:47;90539.91;;;25.47;18.59
11952;BME280;6036;41.840;23.486;2022-10-19T11:10:22;90535.63;;;25.49;18.93
11952;BME280;6036;41.840;23.486;2022-10-19T11:13:13;90536.66;;;25.23;18.58
11952;BME280;6036;41.840;23.486;2022-10-19T11:18:24;90531.69;;;25.38;19.46
11952;BME280;6036;41.840;23.486;2022-10-19T11:21:03;90524.47;;;25.35;19.27
11952;BME280;6036;41.840;23.486;2022-10-19T11:32:34;90518.41;;;25.02;19.57
11952;BME280;6036;41.840;23.486;2022-10-19T11:35:26;90510.69;;;25.20;19.40
11952;BME280;6036;41.840;23.486;2022-10-19T11:40:32;90509.53;;;25.05;20.93
11952;BME280;6036;41.840;23.486;2022-10-19T11:46:14;90506.69;;;24.80;19.90
11952;BME280;6036;41.840;23.486;2022-10-19T11:48:57;90492.78;;;24.69;19.90
11952;BME280;6036;41.840;23.486;2022-10-19T12:05:23;90489.66;;;24.38;22.00
11952;BME280;6036;41.840;23.486;2022-10-19T12:08:12;90491.84;;;24.43;22.22
11952;BME280;6036;41.840;23.486;2022-10-19T12:13:37;90485.25;;;23.92;22.74
11952;BME280;6036;41.840;23.486;2022-10-19T12:16:05;90498.63;;;23.72;22.59
11952;BME280;6036;41.840;23.486;2022-10-19T12:18:39;90496.22;;;23.39;22.46
11952;BME280;6036;41.840;23.486;2022-10-19T12:21:16;90491.09;;;23.24;22.06
11952;BME280;6036;41.840;23.486;2022-10-19T12:23:44;90492.53;;;23.29;22.14
11952;BME280;6036;41.840;23.486;2022-10-19T12:26:14;90489.06;;;23.32;22.28
11952;BME280;6036;41.840;23.486;2022-10-19T12:28:45;90493.00;;;23.47;22.03
11952;BME280;6036;41.840;23.486;2022-10-19T12:31:12;90486.34;;;23.12;22.16
11952;BME280;6036;41.840;23.486;2022-10-19T12:38:55;90490.28;;;23.27;22.68
11952;BME280;6036;41.840;23.486;2022-10-19T12:41:48;90487.66;;;23.47;22.58
11952;BME280;6036;41.840;23.486;2022-10-19T12:47:11;90491.63;;;23.39;22.53
11952;BME280;6036;41.840;23.486;2022-10-19T12:49:46;90497.72;;;23.40;23.03
11952;BME280;6036;41.840;23.486;2022-10-19T12:52:14;90492.66;;;23.45;23.49
11952;BME280;6036;41.840;23.486;2022-10-19T12:54:41;90495.69;;;23.24;23.54
11952;BME280;6036;41.840;23.486;2022-10-19T12:57:43;90486.34;;;23.12;23.43
11952;BME280;6036;41.840;23.486;2022-10-19T13:00:27;90483.91;;;23.21;22.85
11952;BME280;6036;41.840;23.486;2022-10-19T13:03:19;90477.75;;;23.24;22.68
11952;BME280;6036;41.840;23.486;2022-10-19T13:06:00;90476.13;;;23.30;23.73
11952;BME280;6036;41.840;23.486;2022-10-19T13:08:29;90470.34;;;23.75;23.18
11952;BME280;6036;41.840;23.486;2022-10-19T13:11:09;90466.34;;;23.63;23.18
11952;BME280;6036;41.840;23.486;2022-10-19T13:34:54;90478.00;;;22.11;24.72
11952;BME280;6036;41.840;23.486;2022-10-19T13:37:36;90472.41;;;21.71;24.82
11952;BME280;6036;41.840;23.486;2022-10-19T13:40:16;90465.38;;;21.88;24.61
11952;BME280;6036;41.840;23.486;2022-10-19T13:42:43;90469.78;;;22.01;24.25
11952;BME280;6036;41.840;23.486;2022-10-19T13:45:21;90461.16;;;21.60;24.18
11952;BME280;6036;41.840;23.486;2022-10-19T13:47:51;90457.75;;;21.56;24.25
11952;BME280;6036;41.840;23.486;2022-10-19T13:50:29;90456.72;;;21.50;24.34
11952;BME280;6036;41.840;23.486;2022-10-19T13:53:08;90453.81;;;21.37;23.85
11952;BME280;6036;41.840;23.486;2022-10-19T13:55:58;90453.00;;;21.40;23.33
11952;BME280;6036;41.840;23.486;2022-10-19T14:11:43;90462.44;;;20.70;25.27
11952;BME280;6036;41.840;23.486;2022-10-19T14:16:55;90458.81;;;20.50;25.09
11952;BME280;6036;41.840;23.486;2022-10-19T14:19:30;90451.81;;;20.67;24.77
11952;BME280;6036;41.840;23.486;2022-10-19T14:21:58;90455.63;;;20.18;25.51
11952;BME280;6036;41.840;23.486;2022-10-19T14:24:28;90456.72;;;20.21;25.04
11952;BME280;6036;41.840;23.486;2022-10-19T14:26:55;90456.16;;;20.50;24.25
11952;BME280;6036;41.840;23.486;2022-10-19T14:29:21;90459.84;;;20.12;24.58
11952;BME280;6036;41.840;23.486;2022-10-19T14:31:46;90460.69;;;19.95;24.81
11952;BME280;6036;41.840;23.486;2022-10-19T14:34:12;90451.38;;;19.66;24.77
11952;BME280;6036;41.840;23.486;2022-10-19T14:36:43;90455.50;;;19.77;25.08
11952;BME280;6036;41.840;23.486;2022-10-19T14:39:26;90459.25;;;19.83;25.83
11952;BME280;6036;41.840;23.486;2022-10-19T14:41:53;90458.56;;;19.72;26.47
11952;BME280;6036;41.840;23.486;2022-10-19T14:44:40;90459.38;;;19.62;27.99
11952;BME280;6036;41.840;23.486;2022-10-19T14:47:23;90457.97;;;19.36;28.92
11952;BME280;6036;41.840;23.486;2022-10-19T14:49:50;90457.16;;;19.43;27.41
11952;BME280;6036;41.840;23.486;2022-10-19T14:52:23;90470.50;;;19.22;29.62
11952;BME280;6036;41.840;23.486;2022-10-19T14:54:51;90468.66;;;19.05;28.83
11952;BME280;6036;41.840;23.486;2022-10-19T14:59:52;90481.47;;;19.27;27.29
11952;BME280;6036;41.840;23.486;2022-10-19T15:02:25;90474.25;;;19.38;26.67
11952;BME280;6036;41.840;23.486;2022-10-19T15:04:54;90476.19;;;19.20;26.77
11952;BME280;6036;41.840;23.486;2022-10-19T15:07:38;90478.84;;;19.20;27.05
11952;BME280;6036;41.840;23.486;2022-10-19T15:12:44;90483.50;;;18.77;27.66
11952;BME280;6036;41.840;23.486;2022-10-19T15:15:21;90482.34;;;18.75;27.68
11952;BME280;6036;41.840;23.486;2022-10-19T15:20:28;90482.34;;;18.64;27.67
11952;BME280;6036;41.840;23.486;2022-10-19T15:22:56;90480.84;;;18.81;27.50
11952;BME280;6036;41.840;23.486;2022-10-19T15:25:28;90487.56;;;19.24;27.43
11952;BME280;6036;41.840;23.486;2022-10-19T15:27:54;90495.22;;;18.80;27.65
11952;BME280;6036;41.840;23.486;2022-10-19T15:30:30;90492.19;;;18.14;28.22
11952;BME280;6036;41.840;23.486;2022-10-19T15:33:07;90497.44;;;17.93;28.64
11952;BME280;6036;41.840;23.486;2022-10-19T15:35:38;90507.28;;;17.89;27.86
11952;BME280;6036;41.840;23.486;2022-10-19T15:38:06;90502.03;;;18.07;26.95